Time;durP1;ratioP1;P1;durP2;ratioP2;P2;SDS_P1;SDS_P2;PMS_P1;PMS_P2;Temp;Humidity;BMP_temperature;BMP_pressure;BME280_temperature;BME280_humidity;BME280_pressure;Samples;Min_cycle;Max_cycle;Signal;HPM_P1;HPM_P2
2023/07/19 00:01:14;;;;;;;7.47;4.27;;;;;;;24.44;68.24;100042.81;5031705;28;20179;-60
2023/07/19 00:03:39;;;;;;;10.13;4.10;;;;;;;24.45;67.91;100034.97;5054837;28;20187;-60
2023/07/19 00:06:05;;;;;;;7.23;3.87;;;;;;;24.44;68.01;100033.34;5069312;28;20252;-61
2023/07/19 00:08:30;;;;;;;9.93;4.03;;;;;;;24.45;67.75;100032.09;5069581;28;20183;-60
2023/07/19 00:10:56;;;;;;;8.70;4.40;;;;;;;24.45;67.78;100034.97;5067830;28;20529;-60
2023/07/19 00:13:21;;;;;;;7.37;3.50;;;;;;;24.45;67.68;100034.97;5066316;28;20175;-62
2023/07/19 00:15:47;;;;;;;8.00;4.20;;;;;;;24.44;67.41;100034.16;5069038;28;20945;-61
2023/07/19 00:18:12;;;;;;;9.50;4.37;;;;;;;24.44;67.45;100042.81;5064922;28;20815;-60
2023/07/19 00:20:38;;;;;;;5.33;3.43;;;;;;;24.44;66.98;100042.81;5030595;28;20635;-60
2023/07/19 00:23:03;;;;;;;6.50;3.87;;;;;;;24.44;66.96;100037.03;5027367;28;20180;-60
2023/07/19 00:25:28;;;;;;;6.43;4.00;;;;;;;24.43;67.08;100041.16;5009891;28;20208;-61
2023/07/19 00:27:54;;;;;;;6.37;3.30;;;;;;;24.45;66.98;100044.47;5039649;28;20184;-60
2023/07/19 00:30:20;;;;;;;5.67;3.90;;;;;;;24.44;67.06;100042.00;5046729;28;20160;-61
2023/07/19 00:32:45;;;;;;;8.07;3.57;;;;;;;24.44;66.81;100042.00;5059518;28;20240;-61
2023/07/19 00:35:10;;;;;;;11.47;3.83;;;;;;;24.41;66.83;100037.91;5056736;28;20192;-62
2023/07/19 00:37:36;;;;;;;8.93;3.73;;;;;;;24.42;66.67;100042.41;5046844;28;20179;-62
2023/07/19 00:40:03;;;;;;;7.57;4.20;;;;;;;24.42;66.61;100056.84;5046794;28;20171;-61
2023/07/19 00:42:29;;;;;;;5.50;4.13;;;;;;;24.42;66.62;100045.31;5047336;28;20188;-60
2023/07/19 00:44:55;;;;;;;7.43;4.37;;;;;;;24.41;66.83;100037.91;5039049;28;20524;-61
2023/07/19 00:47:20;;;;;;;5.83;3.50;;;;;;;24.42;66.46;100045.31;5033377;28;20180;-60
2023/07/19 00:49:45;;;;;;;5.90;3.43;;;;;;;24.42;66.74;100044.47;5027018;28;20187;-61
2023/07/19 00:52:11;;;;;;;6.47;3.40;;;;;;;24.41;66.48;100043.69;5048584;28;20187;-61
2023/07/19 00:54:37;;;;;;;6.93;3.83;;;;;;;24.41;66.45;100052.34;5048699;28;20186;-60
2023/07/19 00:57:03;;;;;;;5.67;3.70;;;;;;;24.41;66.45;100061.00;5048351;28;20606;-60
2023/07/19 00:59:28;;;;;;;6.47;4.00;;;;;;;24.41;66.25;100055.22;5044736;28;20201;-61
2023/07/19 01:01:54;;;;;;;8.13;4.17;;;;;;;24.41;66.02;100055.22;5044992;28;20548;-61
2023/07/19 01:04:19;;;;;;;6.83;3.73;;;;;;;24.41;66.12;100063.03;5046152;28;20208;-60
2023/07/19 01:06:45;;;;;;;7.13;3.53;;;;;;;24.40;65.94;100065.13;5048283;28;20192;-61
2023/07/19 01:09:11;;;;;;;6.23;3.90;;;;;;;24.40;66.19;100055.63;5030542;28;20183;-61
2023/07/19 01:11:36;;;;;;;4.77;2.97;;;;;;;24.40;65.71;100059.34;5036112;28;20184;-60
2023/07/19 01:14:02;;;;;;;5.83;3.40;;;;;;;24.40;66.06;100059.34;5043937;28;20433;-62
2023/07/19 01:16:27;;;;;;;5.33;3.90;;;;;;;24.40;66.15;100055.63;5058532;28;20245;-60
2023/07/19 01:18:53;;;;;;;8.60;3.93;;;;;;;24.39;66.13;100057.69;5065568;28;20956;-61
2023/07/19 01:21:18;;;;;;;5.10;3.17;;;;;;;24.39;66.07;100062.66;5065751;28;20674;-60
2023/07/19 01:23:44;;;;;;;7.03;3.63;;;;;;;24.39;65.68;100060.59;5067376;28;20224;-61
2023/07/19 01:26:09;;;;;;;4.40;2.70;;;;;;;24.40;65.80;100058.53;5062930;28;20207;-60
2023/07/19 01:28:34;;;;;;;6.43;3.47;;;;;;;24.39;65.97;100054.81;5067150;28;20163;-61
2023/07/19 01:31:03;;;;;;;6.70;4.20;;;;;;;24.38;65.74;100047.41;5067029;28;20194;-61
2023/07/19 01:33:29;;;;;;;6.90;4.10;;;;;;;24.38;65.84;100041.63;5032156;28;20188;-61
2023/07/19 01:35:54;;;;;;;6.83;3.73;;;;;;;24.38;65.60;100037.94;5047004;28;20426;-60
2023/07/19 01:38:19;;;;;;;5.40;3.53;;;;;;;24.39;65.65;100040.38;5049607;28;20191;-60
2023/07/19 01:40:45;;;;;;;5.33;3.70;;;;;;;24.38;65.51;100043.72;5047494;28;20176;-61
2023/07/19 01:43:11;;;;;;;5.90;3.03;;;;;;;24.38;65.78;100043.72;5055608;28;20183;-62
2023/07/19 01:45:36;;;;;;;5.30;3.70;;;;;;;24.38;65.80;100037.94;5050603;28;20212;-61
2023/07/19 01:48:01;;;;;;;5.57;3.90;;;;;;;24.37;65.69;100034.22;5048060;28;20175;-60
2023/07/19 01:50:29;;;;;;;7.30;3.90;;;;;;;24.37;65.60;100042.88;5055520;28;20201;-60
2023/07/19 01:52:54;;;;;;;6.53;3.80;;;;;;;24.37;65.68;100045.78;5068039;28;20179;-61
2023/07/19 01:55:20;;;;;;;4.90;3.50;;;;;;;24.36;65.62;100047.03;5064529;28;20758;-61
2023/07/19 01:57:45;;;;;;;5.10;3.37;;;;;;;24.37;65.37;100042.88;5053339;28;20198;-60
2023/07/19 02:00:11;;;;;;;6.83;3.80;;;;;;;24.37;65.56;100033.41;5047995;28;20178;-60
2023/07/19 02:02:37;;;;;;;7.17;3.50;;;;;;;24.36;65.68;100032.59;5065043;28;20638;-60
2023/07/19 02:05:02;;;;;;;5.30;3.20;;;;;;;24.36;65.45;100032.59;5049112;28;20211;-60
2023/07/19 02:07:28;;;;;;;5.20;3.80;;;;;;;24.36;65.52;100034.66;5050712;28;20196;-60
2023/07/19 02:09:53;;;;;;;5.93;3.67;;;;;;;24.36;65.33;100028.88;5030391;28;20714;-60
2023/07/19 02:12:18;;;;;;;5.90;4.03;;;;;;;24.36;65.62;100021.06;5066653;28;20253;-60
2023/07/19 02:14:44;;;;;;;5.83;3.93;;;;;;;24.35;65.07;100025.19;5066576;28;20233;-61
2023/07/19 02:17:10;;;;;;;5.80;3.33;;;;;;;24.35;65.72;100022.31;5066969;28;20230;-61
2023/07/19 02:19:35;;;;;;;5.10;3.57;;;;;;;24.36;65.54;100029.72;5061520;28;20183;-60
2023/07/19 02:22:01;;;;;;;6.10;3.23;;;;;;;24.35;65.21;100025.19;5046107;28;20210;-62
2023/07/19 02:24:26;;;;;;;5.90;3.33;;;;;;;24.35;65.12;100021.47;5046403;28;20530;-61
2023/07/19 02:26:52;;;;;;;9.83;3.77;;;;;;;24.35;65.41;100018.59;5046639;28;20226;-61
2023/07/19 02:29:17;;;;;;;5.80;3.23;;;;;;;24.35;65.18;100027.25;5052941;28;20198;-62
2023/07/19 02:31:42;;;;;;;6.10;3.70;;;;;;;24.35;65.17;100021.47;5066123;28;20274;-61
2023/07/19 02:34:08;;;;;;;5.60;3.77;;;;;;;24.33;65.19;100024.78;5066435;28;20179;-60
2023/07/19 02:36:34;;;;;;;5.33;3.63;;;;;;;24.33;65.20;100024.78;5066016;28;20178;-61
2023/07/19 02:39:01;;;;;;;6.17;3.97;;;;;;;24.34;65.29;100037.94;5046310;28;20650;-62
2023/07/19 02:41:26;;;;;;;6.50;4.00;;;;;;;24.33;65.59;100030.56;5066689;28;20676;-62
2023/07/19 02:43:52;;;;;;;5.67;3.60;;;;;;;24.32;65.32;100034.69;5066289;28;20424;-62
2023/07/19 02:46:17;;;;;;;6.50;4.00;;;;;;;24.33;65.45;100041.28;5067879;28;20191;-61
2023/07/19 02:48:43;;;;;;;5.67;4.23;;;;;;;24.32;65.36;100040.47;5066144;28;20308;-60
2023/07/19 02:51:08;;;;;;;5.63;3.53;;;;;;;24.32;65.19;100043.34;5070502;28;20163;-62
2023/07/19 02:53:34;;;;;;;6.10;3.77;;;;;;;24.32;65.05;100051.16;5049588;28;20191;-61
2023/07/19 02:55:59;;;;;;;5.97;3.57;;;;;;;24.32;65.28;100056.94;5071533;28;20171;-60
2023/07/19 02:58:25;;;;;;;8.53;3.83;;;;;;;24.31;65.06;100050.38;5069046;28;20723;-60
2023/07/19 03:00:53;;;;;;;4.80;3.60;;;;;;;24.31;64.98;100049.53;5068734;28;20183;-62
2023/07/19 03:03:18;;;;;;;4.70;3.07;;;;;;;24.31;65.38;100050.38;5070729;28;20551;-60
2023/07/19 03:05:44;;;;;;;7.80;3.50;;;;;;;24.30;65.13;100057.41;5059652;28;20524;-60
2023/07/19 03:08:10;;;;;;;7.20;3.30;;;;;;;24.31;64.78;100061.91;5031801;28;20187;-61
2023/07/19 03:10:36;;;;;;;5.13;3.50;;;;;;;24.30;65.12;100057.41;5049907;28;20422;-61
2023/07/19 03:13:01;;;;;;;5.17;3.60;;;;;;;24.29;65.13;100061.50;5057352;28;20187;-62
2023/07/19 03:15:27;;;;;;;6.70;3.60;;;;;;;24.30;65.06;100053.69;5044118;28;20635;-61
2023/07/19 03:17:53;;;;;;;5.73;3.60;;;;;;;24.28;64.99;100051.22;5068938;28;20194;-61
2023/07/19 03:20:19;;;;;;;6.73;4.43;;;;;;;24.29;65.08;100064.38;5069283;28;20445;-60
2023/07/19 03:22:44;;;;;;;4.90;2.97;;;;;;;24.28;64.85;100068.53;5050677;28;20167;-62
2023/07/19 03:25:10;;;;;;;6.30;4.33;;;;;;;24.29;65.15;100075.13;5033796;28;20255;-61
2023/07/19 03:27:35;;;;;;;5.20;3.33;;;;;;;24.28;64.83;100079.25;5053370;28;20220;-60
2023/07/19 03:30:01;;;;;;;6.47;3.97;;;;;;;24.27;64.93;100081.31;5068942;28;20543;-61
2023/07/19 03:32:29;;;;;;;5.57;4.20;;;;;;;24.27;65.12;100084.19;5066024;28;20177;-62
2023/07/19 03:34:55;;;;;;;9.87;3.80;;;;;;;24.28;64.77;100085.03;5051014;28;20936;-61
2023/07/19 03:37:20;;;;;;;7.77;4.00;;;;;;;24.28;65.28;100085.84;5049315;28;20463;-61
2023/07/19 03:39:48;;;;;;;6.17;4.30;;;;;;;24.27;64.79;100081.31;5049496;28;20179;-61
2023/07/19 03:42:14;;;;;;;6.43;3.73;;;;;;;24.27;64.81;100087.09;5049964;28;20160;-61
2023/07/19 03:44:39;;;;;;;7.03;4.10;;;;;;;24.27;64.91;100089.97;5052820;28;20496;-60
2023/07/19 03:47:05;;;;;;;5.70;3.40;;;;;;;24.27;64.67;100089.13;5050030;28;20199;-60
2023/07/19 03:49:31;;;;;;;9.57;4.10;;;;;;;24.27;64.81;100097.78;5050172;28;20179;-60
2023/07/19 03:51:56;;;;;;;6.70;4.40;;;;;;;24.26;64.74;100099.03;5050853;28;20186;-60
2023/07/19 03:54:21;;;;;;;5.73;3.90;;;;;;;24.27;64.61;100097.78;5067797;28;20582;-61
2023/07/19 03:56:47;;;;;;;5.17;3.60;;;;;;;24.26;64.82;100090.38;5067558;28;20190;-61
2023/07/19 03:59:12;;;;;;;6.57;3.70;;;;;;;24.26;64.63;100090.38;5046986;28;20183;-61
2023/07/19 04:01:38;;;;;;;4.50;3.43;;;;;;;24.24;64.75;100087.91;5068516;28;20548;-62
2023/07/19 04:04:03;;;;;;;4.80;3.13;;;;;;;24.26;64.69;100085.44;5067769;28;20260;-60
2023/07/19 04:06:29;;;;;;;6.77;4.00;;;;;;;24.25;64.72;100092.47;5053687;28;20269;-60
2023/07/19 04:08:55;;;;;;;7.00;3.77;;;;;;;24.24;64.34;100099.47;5068510;28;20701;-60
2023/07/19 04:11:20;;;;;;;8.40;3.93;;;;;;;24.24;64.31;100101.56;5050287;28;20425;-61
2023/07/19 04:13:46;;;;;;;6.27;3.60;;;;;;;24.23;64.43;100097.81;5065468;28;20182;-60
2023/07/19 04:16:11;;;;;;;5.77;3.37;;;;;;;24.23;64.30;100099.91;5059792;28;20223;-61
2023/07/19 04:18:37;;;;;;;6.63;4.07;;;;;;;24.23;64.42;100097.81;5048079;28;20267;-62
2023/07/19 04:21:03;;;;;;;5.13;3.63;;;;;;;24.23;64.27;100097.81;5048524;28;20164;-62
2023/07/19 04:23:28;;;;;;;5.27;3.43;;;;;;;24.22;64.39;100101.97;5050935;28;20184;-60
2023/07/19 04:25:54;;;;;;;6.13;3.50;;;;;;;24.23;64.19;100100.72;5048471;28;20195;-60
2023/07/19 04:28:19;;;;;;;5.87;3.90;;;;;;;24.23;64.29;100102.81;5061747;28;20183;-61
2023/07/19 04:30:45;;;;;;;5.30;3.80;;;;;;;24.23;64.22;100102.81;5065187;28;20194;-60
2023/07/19 04:33:10;;;;;;;5.93;4.00;;;;;;;24.23;64.19;100106.47;5067925;28;20179;-62
2023/07/19 04:35:36;;;;;;;5.40;3.50;;;;;;;24.22;64.07;100104.84;5050730;28;20175;-60
2023/07/19 04:38:03;;;;;;;6.67;4.40;;;;;;;24.24;64.19;100101.56;5068639;28;20299;-61
2023/07/19 04:40:30;;;;;;;4.87;3.70;;;;;;;24.25;64.09;100103.19;5063404;28;20236;-61
2023/07/19 04:42:55;;;;;;;5.93;3.80;;;;;;;24.26;63.63;100104.81;5055451;28;20429;-61
2023/07/19 04:45:21;;;;;;;7.87;4.10;;;;;;;24.24;63.95;100096.56;5068315;28;20417;-61
2023/07/19 04:47:46;;;;;;;8.60;4.20;;;;;;;24.25;64.11;100108.94;5067658;28;20175;-60
2023/07/19 04:50:12;;;;;;;8.13;4.63;;;;;;;24.25;63.80;100104.00;5058001;28;21167;-62
2023/07/19 04:52:37;;;;;;;8.67;4.00;;;;;;;24.26;64.01;100110.59;5029794;28;20654;-61
2023/07/19 04:55:03;;;;;;;5.53;3.47;;;;;;;24.26;63.92;100099.88;5053691;28;20189;-62
2023/07/19 04:57:29;;;;;;;4.40;3.60;;;;;;;24.27;63.98;100100.69;5061020;28;20179;-60
2023/07/19 04:59:54;;;;;;;7.83;4.80;;;;;;;24.25;63.80;100097.41;5066796;28;20178;-60
2023/07/19 05:02:19;;;;;;;6.97;3.77;;;;;;;24.25;63.86;100094.53;5047189;28;20537;-61
2023/07/19 05:04:45;;;;;;;8.57;5.37;;;;;;;24.25;63.85;100097.41;5067228;28;20865;-60
2023/07/19 05:07:10;;;;;;;5.80;4.17;;;;;;;24.23;63.96;100094.94;5063596;28;20229;-62
2023/07/19 05:09:36;;;;;;;6.17;3.83;;;;;;;24.24;63.92;100098.66;5068628;28;20570;-61
2023/07/19 05:12:02;;;;;;;7.17;4.00;;;;;;;24.25;63.98;100094.53;5076240;28;20178;-63
2023/07/19 05:14:27;;;;;;;8.10;4.20;;;;;;;24.23;63.87;100092.06;5064412;28;20183;-60
2023/07/19 05:16:53;;;;;;;7.30;4.47;;;;;;;24.24;63.75;100090.81;5065858;28;20231;-63
2023/07/19 05:19:18;;;;;;;7.03;4.07;;;;;;;24.30;64.21;100100.69;5046713;28;20230;-60
2023/07/19 05:21:44;;;;;;;9.30;5.30;;;;;;;24.49;66.58;100097.19;5040014;28;20183;-62
2023/07/19 05:24:11;;;;;;;10.13;6.80;;;;;;;24.61;68.81;100098.75;5063334;28;20186;-60
2023/07/19 05:26:37;;;;;;;17.30;8.27;;;;;;;24.81;69.60;100099.78;5049562;28;20235;-60
2023/07/19 05:29:03;;;;;;;14.67;8.40;;;;;;;24.78;69.69;100101.47;5046273;28;20520;-60
2023/07/19 05:31:29;;;;;;;18.37;7.80;;;;;;;24.58;67.01;100100.44;5064549;28;20753;-60
2023/07/19 05:33:54;;;;;;;13.03;6.60;;;;;;;24.55;68.36;100094.66;5068122;28;20429;-61
2023/07/19 05:36:20;;;;;;;14.50;6.80;;;;;;;24.52;68.09;100101.28;5050203;28;20343;-61
2023/07/19 05:38:45;;;;;;;13.40;7.00;;;;;;;24.46;68.10;100109.59;5067833;28;20163;-59
2023/07/19 05:41:11;;;;;;;11.00;6.40;;;;;;;24.44;66.31;100106.31;5071334;28;20175;-61
2023/07/19 05:43:37;;;;;;;9.57;5.70;;;;;;;24.42;66.90;100108.81;5048600;28;20183;-61
2023/07/19 05:46:06;;;;;;;15.73;6.70;;;;;;;24.52;68.29;100107.88;5047671;28;20207;-61
2023/07/19 05:48:32;;;;;;;8.77;6.63;;;;;;;24.64;69.13;100101.59;5062034;28;20186;-62
2023/07/19 05:50:58;;;;;;;11.87;6.27;;;;;;;24.65;68.58;100106.16;5078367;28;20447;-60
2023/07/19 05:53:24;;;;;;;10.97;6.60;;;;;;;24.57;67.16;100110.31;5063760;28;20516;-61
2023/07/19 05:55:49;;;;;;;11.20;6.80;;;;;;;24.51;68.29;100112.03;5061374;28;20575;-60
2023/07/19 05:58:15;;;;;;;16.53;5.70;;;;;;;24.45;68.34;100113.75;5065706;28;20697;-60
2023/07/19 06:00:40;;;;;;;12.07;6.50;;;;;;;24.46;68.22;100126.91;5051635;28;20243;-61
2023/07/19 06:03:06;;;;;;;12.50;6.73;;;;;;;24.45;68.29;100122.41;5048048;28;20897;-62
2023/07/19 06:05:32;;;;;;;8.70;6.23;;;;;;;24.42;67.70;100122.41;5058089;28;20380;-61
2023/07/19 06:07:57;;;;;;;16.10;7.67;;;;;;;24.42;67.67;100123.22;5076851;28;20718;-60
2023/07/19 06:10:23;;;;;;;11.70;5.57;;;;;;;24.41;67.79;100130.25;5050291;28;20219;-60
2023/07/19 06:12:49;;;;;;;10.10;5.83;;;;;;;24.43;67.37;100130.63;5048138;28;20179;-60
2023/07/19 06:15:15;;;;;;;12.10;5.97;;;;;;;24.45;67.38;100127.34;5065182;28;20175;-61
2023/07/19 06:17:40;;;;;;;12.57;5.80;;;;;;;24.43;66.43;100135.63;5070819;28;20930;-62
2023/07/19 06:20:07;;;;;;;11.70;6.10;;;;;;;24.41;66.46;100141.81;5038137;28;20179;-61
2023/07/19 06:22:32;;;;;;;9.20;5.60;;;;;;;24.42;67.10;100142.59;5083925;28;20181;-61
2023/07/19 06:24:58;;;;;;;13.03;5.70;;;;;;;24.40;66.39;100145.94;5047308;28;20440;-61
2023/07/19 06:27:23;;;;;;;11.33;6.30;;;;;;;24.35;66.52;100142.69;5071578;28;20209;-61
2023/07/19 06:29:50;;;;;;;11.57;5.73;;;;;;;24.32;66.69;100144.34;5077897;28;20220;-61
2023/07/19 06:32:15;;;;;;;11.87;6.27;;;;;;;24.30;66.13;100135.31;5076188;28;20194;-62
2023/07/19 06:34:41;;;;;;;11.03;5.93;;;;;;;24.30;66.58;100137.34;5074552;28;20443;-61
2023/07/19 06:37:06;;;;;;;9.23;6.07;;;;;;;24.30;66.65;100140.25;5071400;28;20232;-60
2023/07/19 06:39:32;;;;;;;16.60;7.20;;;;;;;24.28;66.45;100134.88;5054254;28;20186;-61
2023/07/19 06:41:57;;;;;;;7.83;5.07;;;;;;;24.27;66.55;100141.91;5057289;28;20213;-60
2023/07/19 06:44:23;;;;;;;9.17;5.80;;;;;;;24.27;66.33;100143.97;5072384;28;20179;-62
2023/07/19 06:46:48;;;;;;;15.00;5.67;;;;;;;24.26;66.17;100140.28;5048076;28;20210;-61
2023/07/19 06:49:14;;;;;;;9.70;6.13;;;;;;;24.25;66.28;100135.75;5070480;28;20162;-61
2023/07/19 06:51:39;;;;;;;9.27;4.57;;;;;;;24.26;66.09;100137.38;5085147;28;20193;-61
2023/07/19 06:54:05;;;;;;;9.93;5.80;;;;;;;24.28;66.38;100134.88;5079217;28;20187;-61
2023/07/19 06:56:30;;;;;;;10.40;6.33;;;;;;;24.31;66.91;100133.22;5067542;28;20800;-61
2023/07/19 06:58:56;;;;;;;10.20;5.83;;;;;;;24.30;66.90;100135.31;5068889;28;20729;-62
2023/07/19 07:01:21;;;;;;;17.23;5.50;;;;;;;24.34;66.99;100130.31;5059704;28;20191;-61
2023/07/19 07:03:47;;;;;;;7.90;5.50;;;;;;;24.33;66.95;100133.63;5062029;28;20183;-60
2023/07/19 07:06:12;;;;;;;9.80;5.83;;;;;;;24.33;67.11;100137.31;5067804;28;20191;-60
2023/07/19 07:08:38;;;;;;;11.40;6.10;;;;;;;24.33;67.02;100134.44;5068046;28;20179;-61
2023/07/19 07:11:06;;;;;;;17.60;6.63;;;;;;;24.32;67.09;100132.81;5055324;28;20179;-60
2023/07/19 07:13:31;;;;;;;10.43;5.60;;;;;;;24.32;66.96;100127.03;5060957;28;20273;-61
2023/07/19 07:16:00;;;;;;;7.23;4.90;;;;;;;24.33;67.12;100124.97;5066525;28;20900;-61
2023/07/19 07:18:25;;;;;;;8.63;5.20;;;;;;;24.32;67.31;100117.53;5068786;28;20160;-60
2023/07/19 07:20:51;;;;;;;9.47;6.33;;;;;;;24.32;66.89;100117.53;5055773;28;20434;-60
2023/07/19 07:23:17;;;;;;;7.90;5.40;;;;;;;24.31;66.78;100119.63;5048604;28;20194;-60
2023/07/19 07:25:42;;;;;;;8.47;5.50;;;;;;;24.31;66.54;100122.50;5052675;28;20469;-60
2023/07/19 07:28:08;;;;;;;7.80;4.97;;;;;;;24.31;66.72;100115.91;5068559;28;20189;-60
2023/07/19 07:30:37;;;;;;;8.30;5.33;;;;;;;24.31;66.56;100119.63;5068130;28;20224;-60
2023/07/19 07:33:03;;;;;;;7.80;4.70;;;;;;;24.31;66.69;100107.25;5049537;28;20187;-60
2023/07/19 07:35:29;;;;;;;6.80;5.13;;;;;;;24.32;66.54;100117.53;5037205;28;20441;-61
2023/07/19 07:37:54;;;;;;;7.83;4.70;;;;;;;24.33;66.50;100119.19;5048711;28;20932;-60
2023/07/19 07:40:19;;;;;;;7.83;4.97;;;;;;;24.31;66.53;100110.97;5055526;28;20556;-59
2023/07/19 07:42:45;;;;;;;7.80;5.70;;;;;;;24.31;66.39;100113.84;5048696;28;20548;-60
2023/07/19 07:45:11;;;;;;;8.43;5.37;;;;;;;24.32;66.14;100114.66;5050076;28;20183;-61
2023/07/19 07:47:36;;;;;;;6.73;4.73;;;;;;;24.32;66.17;100111.75;5055408;28;20203;-59
2023/07/19 07:50:03;;;;;;;18.57;5.90;;;;;;;24.31;66.10;100113.84;5048305;28;20804;-61
2023/07/19 07:52:29;;;;;;;8.90;5.70;;;;;;;24.32;65.84;100109.72;5030975;28;20191;-60
2023/07/19 07:54:55;;;;;;;7.63;5.27;;;;;;;24.31;66.16;100113.84;5063707;28;20462;-60
2023/07/19 07:57:20;;;;;;;9.33;5.10;;;;;;;24.32;66.14;100108.88;5064615;28;20183;-59
2023/07/19 07:59:46;;;;;;;7.17;5.03;;;;;;;24.30;65.89;100106.44;5048044;28;20233;-60
2023/07/19 08:02:11;;;;;;;7.00;4.60;;;;;;;24.30;65.91;100097.78;5051604;28;20256;-60
2023/07/19 08:04:37;;;;;;;6.20;4.53;;;;;;;24.30;65.88;100106.44;5047664;28;20231;-60
2023/07/19 08:07:02;;;;;;;9.10;5.27;;;;;;;24.31;65.90;100101.47;5032351;28;20725;-62
2023/07/19 08:09:28;;;;;;;7.27;5.10;;;;;;;24.31;65.76;100098.59;5063073;28;20962;-61
2023/07/19 08:11:53;;;;;;;9.20;4.83;;;;;;;24.31;65.77;100102.31;5064432;28;20187;-62
2023/07/19 08:14:19;;;;;;;11.23;5.37;;;;;;;24.32;65.51;100094.44;5066992;28;20187;-60
2023/07/19 08:16:46;;;;;;;7.63;4.93;;;;;;;24.31;65.59;100095.69;4997496;28;1218712;-60
2023/07/19 08:19:12;;;;;;;8.30;5.03;;;;;;;24.32;65.18;100098.16;5048520;28;20530;-61
2023/07/19 08:21:37;;;;;;;7.47;5.60;;;;;;;24.31;65.72;100090.75;5048460;28;21215;-61
2023/07/19 08:24:03;;;;;;;8.07;5.30;;;;;;;24.31;65.47;100079.22;5030602;28;20489;-59
2023/07/19 08:26:29;;;;;;;6.70;4.63;;;;;;;24.32;65.41;100068.47;5062829;28;20222;-62
2023/07/19 08:28:54;;;;;;;7.03;4.67;;;;;;;24.33;65.40;100070.16;5067921;28;20985;-59
2023/07/19 08:31:19;;;;;;;8.10;4.67;;;;;;;24.32;65.39;100071.38;5042411;28;20627;-61
2023/07/19 08:33:45;;;;;;;7.00;5.03;;;;;;;24.32;65.24;100057.78;5048166;28;20561;-60
2023/07/19 08:36:10;;;;;;;11.47;4.20;;;;;;;24.31;65.04;100059.03;5048109;28;20164;-60
2023/07/19 08:38:36;;;;;;;6.90;4.77;;;;;;;24.32;65.27;100069.31;5054173;28;20175;-61
2023/07/19 08:41:05;;;;;;;7.47;4.70;;;;;;;24.32;65.08;100060.66;5064808;28;20186;-61
2023/07/19 08:43:32;;;;;;;6.40;4.20;;;;;;;24.32;65.01;100056.94;5066045;28;20286;-61
2023/07/19 08:45:57;;;;;;;8.90;4.57;;;;;;;24.32;64.90;100063.53;5063889;28;20466;-60
2023/07/19 08:48:23;;;;;;;7.97;4.63;;;;;;;24.31;65.25;100053.25;5046845;28;20781;-60
2023/07/19 08:50:55;;;;;;;8.00;4.67;;;;;;;24.33;64.92;100047.88;5039971;28;20185;-61
2023/07/19 08:53:20;;;;;;;6.57;4.67;;;;;;;24.32;64.69;100049.13;5066410;28;20175;-60
2023/07/19 08:55:46;;;;;;;9.73;5.10;;;;;;;24.32;64.83;100046.22;5054926;28;20895;-60
2023/07/19 08:58:11;;;;;;;7.70;4.43;;;;;;;24.32;64.78;100042.50;5045958;28;20562;-61
2023/07/19 09:00:38;;;;;;;7.13;4.70;;;;;;;24.32;64.70;100033.84;5053274;28;20554;-60
2023/07/19 09:03:04;;;;;;;8.50;4.30;;;;;;;24.32;64.79;100042.50;5042420;28;20195;-59
2023/07/19 09:05:29;;;;;;;7.53;4.63;;;;;;;24.31;64.74;100038.00;5048659;28;20469;-61
2023/07/19 09:07:55;;;;;;;6.47;4.00;;;;;;;24.31;64.86;100033.06;5046626;28;20233;-60
2023/07/19 09:10:21;;;;;;;7.23;4.40;;;;;;;24.31;64.80;100033.06;5014777;28;20219;-61
2023/07/19 09:12:47;;;;;;;9.10;4.50;;;;;;;24.31;64.58;100027.28;5049854;28;20183;-61
2023/07/19 09:15:13;;;;;;;6.07;4.13;;;;;;;24.31;64.71;100024.41;5047744;28;20191;-60
2023/07/19 09:17:47;;;;;;;13.40;4.40;;;;;;;24.31;64.27;100015.75;5052100;28;20186;-59
2023/07/19 09:20:13;;;;;;;14.40;5.20;;;;;;;24.31;64.46;100015.75;5058569;28;20943;-59
2023/07/19 09:22:39;;;;;;;9.77;4.50;;;;;;;24.31;64.49;100015.75;5067425;28;20433;-60
2023/07/19 09:25:06;;;;;;;14.03;5.23;;;;;;;24.31;64.42;100009.13;5060264;28;20187;-61
2023/07/19 09:27:32;;;;;;;8.83;4.90;;;;;;;24.31;64.18;100004.19;5045092;28;20211;-60
2023/07/19 09:29:57;;;;;;;8.03;4.10;;;;;;;24.31;64.02;100007.09;5064562;28;20524;-60
2023/07/19 09:32:24;;;;;;;11.70;4.73;;;;;;;24.32;64.11;100000.06;5067685;28;20416;-59
2023/07/19 09:34:52;;;;;;;8.80;5.27;;;;;;;24.32;64.13;100002.94;5056421;28;20207;-60
2023/07/19 09:37:20;;;;;;;9.10;5.07;;;;;;;24.32;64.87;100000.06;5050715;28;20820;-60
2023/07/19 09:39:46;;;;;;;10.83;4.40;;;;;;;24.32;63.82;99999.22;5064652;28;20937;-60
2023/07/19 09:42:13;;;;;;;10.27;5.33;;;;;;;24.34;64.56;100000.44;5044073;28;20532;-59
2023/07/19 09:44:39;;;;;;;10.90;4.90;;;;;;;24.32;64.00;100005.00;5063799;28;20425;-61
2023/07/19 09:47:08;;;;;;;12.10;4.97;;;;;;;24.33;63.94;100006.66;5041782;28;20465;-61
2023/07/19 09:49:36;;;;;;;12.60;4.43;;;;;;;24.33;63.76;100004.56;5063447;28;20188;-60
2023/07/19 09:52:02;;;;;;;10.20;4.83;;;;;;;24.32;63.60;99994.28;5064775;28;20460;-62
2023/07/19 09:54:27;;;;;;;9.43;4.03;;;;;;;24.32;64.19;99994.28;5063549;28;20539;-60
2023/07/19 09:56:53;;;;;;;7.57;4.10;;;;;;;24.31;63.54;99992.66;5032081;28;21179;-60
2023/07/19 09:59:23;;;;;;;10.13;4.27;;;;;;;24.33;63.74;99992.22;5066742;28;20178;-60
2023/07/19 10:01:48;;;;;;;9.70;4.83;;;;;;;24.32;63.54;99987.69;5031500;28;20181;-59
2023/07/19 10:04:42;;;;;;;8.20;4.23;;;;;;;24.35;62.54;99987.69;5022335;28;21137;-61
2023/07/19 10:07:08;;;;;;;8.47;4.03;;;;;;;24.37;62.34;99978.56;5044789;28;20234;-60
2023/07/19 10:09:43;;;;;;;7.47;4.27;;;;;;;24.38;62.02;99992.56;5058778;28;20439;-60
2023/07/19 10:12:14;;;;;;;8.33;4.33;;;;;;;24.37;62.04;99985.16;5057268;28;20190;-60
2023/07/19 10:14:40;;;;;;;7.43;4.23;;;;;;;24.38;61.96;99986.00;5062092;28;20464;-61
2023/07/19 10:17:06;;;;;;;6.53;3.93;;;;;;;24.37;62.72;99985.16;5048097;28;20470;-60
2023/07/19 10:19:31;;;;;;;6.00;3.90;;;;;;;24.35;62.16;99973.25;5046269;28;20186;-60
2023/07/19 10:22:07;;;;;;;7.07;3.70;;;;;;;24.36;62.45;99966.22;5053920;28;20192;-60
2023/07/19 10:24:36;;;;;;;6.20;4.03;;;;;;;24.34;62.52;99962.94;5047278;28;20205;-60
2023/07/19 10:27:06;;;;;;;7.60;3.90;;;;;;;24.35;62.33;99967.47;5031268;28;20549;-61
2023/07/19 10:29:42;;;;;;;6.17;3.60;;;;;;;24.34;62.58;99968.69;5064172;28;20417;-61
2023/07/19 10:32:11;;;;;;;5.50;3.60;;;;;;;24.35;62.34;99966.63;5049491;28;20831;-60
2023/07/19 10:34:36;;;;;;;5.23;3.63;;;;;;;24.33;62.42;99978.59;5028932;28;20422;-61
2023/07/19 10:37:03;;;;;;;8.67;4.00;;;;;;;24.34;62.18;99974.47;5046983;28;20484;-60
2023/07/19 10:39:29;;;;;;;6.90;3.57;;;;;;;24.35;62.03;99970.38;5046463;28;20168;-60
2023/07/19 10:41:54;;;;;;;6.40;3.47;;;;;;;24.37;61.94;99976.50;5048341;28;20443;-61
2023/07/19 10:44:24;;;;;;;10.30;4.40;;;;;;;24.36;62.30;99963.34;5057769;28;20532;-60
2023/07/19 10:46:49;;;;;;;9.47;3.73;;;;;;;24.36;62.60;99966.22;5065133;28;20318;-61
2023/07/19 10:49:15;;;;;;;7.27;3.63;;;;;;;24.36;62.60;99979.81;5062348;28;21053;-61
2023/07/19 10:51:59;;;;;;;7.53;4.20;;;;;;;24.36;62.42;99974.03;5043516;28;20582;-62
2023/07/19 10:54:25;;;;;;;3.97;3.00;;;;;;;24.34;62.46;99974.47;5047121;28;20170;-60
2023/07/19 10:56:51;;;;;;;7.83;3.93;;;;;;;24.35;63.10;99973.25;5025092;28;20426;-61
2023/07/19 10:59:17;;;;;;;6.67;3.63;;;;;;;24.35;63.00;99973.25;5047825;28;20164;-61
2023/07/19 11:01:43;;;;;;;11.50;3.73;;;;;;;24.35;62.92;99976.13;5065945;28;20444;-60
2023/07/19 11:04:08;;;;;;;5.33;2.90;;;;;;;24.35;63.19;99967.47;5045473;28;20220;-60
2023/07/19 11:06:36;;;;;;;8.63;4.30;;;;;;;24.35;63.04;99967.47;5067240;28;20191;-61
2023/07/19 11:09:03;;;;;;;5.93;3.57;;;;;;;24.37;62.83;99967.03;5052612;28;20179;-62
2023/07/19 11:11:28;;;;;;;6.60;3.90;;;;;;;24.37;62.74;99964.97;5066836;28;20436;-60
2023/07/19 11:13:54;;;;;;;15.43;3.60;;;;;;;24.38;62.52;99966.59;5048627;28;20564;-61
2023/07/19 11:16:19;;;;;;;8.90;4.43;;;;;;;24.39;62.12;99959.56;5053113;28;20220;-61
2023/07/19 11:18:45;;;;;;;7.20;4.10;;;;;;;24.41;61.94;99959.16;5044177;28;20216;-61